createdAt,value
2019-05-26T00:04:35.801Z,99361.77
2019-05-26T00:10:40.354Z,99362.04
2019-05-26T00:16:44.912Z,99357.72
2019-05-26T00:22:49.497Z,99363.73
2019-05-26T00:29:07.642Z,99356.44
2019-05-26T00:35:12.275Z,99350.56
2019-05-26T00:41:16.835Z,99352.09
2019-05-26T00:47:21.478Z,99357.67
2019-05-26T00:53:26.743Z,99349.80
2019-05-26T00:59:31.365Z,99335.64
2019-05-26T01:05:35.908Z,99326.33
2019-05-26T01:11:40.466Z,99335.34
2019-05-26T01:17:45.067Z,99337.83
2019-05-26T01:23:49.690Z,99333.71
2019-05-26T01:29:54.236Z,99337.91
2019-05-26T01:35:59.141Z,99328.47
2019-05-26T01:42:03.706Z,99328.52
2019-05-26T01:48:09.070Z,99331.94
2019-05-26T01:54:13.627Z,99329.45
2019-05-26T02:00:18.884Z,99330.68
2019-05-26T02:06:23.578Z,99327.55
2019-05-26T02:12:28.133Z,99329.45
2019-05-26T02:18:32.721Z,99327.03
2019-05-26T02:24:37.313Z,99322.65
2019-05-26T02:30:41.874Z,99309.29
2019-05-26T02:36:46.523Z,99308.01
2019-05-26T02:42:51.046Z,99305.69
2019-05-26T02:48:55.602Z,99313.10
2019-05-26T02:55:00.172Z,99305.09
2019-05-26T03:01:04.798Z,99315.40
2019-05-26T03:07:09.988Z,99313.66
2019-05-26T03:13:17.150Z,99312.98
2019-05-26T03:19:23.283Z,99310.16
2019-05-26T03:25:29.382Z,99300.49
2019-05-26T03:31:33.984Z,99301.80
2019-05-26T03:37:38.745Z,99300.27
2019-05-26T03:43:43.354Z,99292.19
2019-05-26T03:49:48.036Z,99290.19
2019-05-26T03:55:52.611Z,99290.73
2019-05-26T04:01:57.896Z,99291.92
2019-05-26T04:08:05.109Z,99281.23
2019-05-26T04:14:08.974Z,99282.11
2019-05-26T04:20:13.765Z,99279.97
2019-05-26T04:26:18.318Z,99272.55
2019-05-26T04:32:22.943Z,99270.03
2019-05-26T04:38:27.497Z,99271.97
2019-05-26T04:44:32.065Z,99275.27
2019-05-26T04:50:36.630Z,99279.98
2019-05-26T04:56:41.339Z,99269.80
2019-05-26T05:02:45.895Z,99266.96
2019-05-26T05:08:50.535Z,99267.95
2019-05-26T05:14:55.286Z,99270.66
2019-05-26T05:20:59.827Z,99270.42
2019-05-26T05:27:04.461Z,99258.88
2019-05-26T05:33:09.097Z,99260.14
2019-05-26T05:39:13.653Z,99251.48
2019-05-26T05:45:19.477Z,99249.47
2019-05-26T05:51:24.047Z,99247.59
2019-05-26T05:57:28.611Z,99249.61
2019-05-26T06:03:33.162Z,99248.87
2019-05-26T06:09:37.750Z,99248.42
2019-05-26T06:15:42.320Z,99248.61
2019-05-26T06:21:46.894Z,99243.06
2019-05-26T06:27:51.720Z,99237.31
2019-05-26T06:33:56.330Z,99243.75
2019-05-26T06:40:01.124Z,99238.58
2019-05-26T06:46:06.323Z,99230.30
2019-05-26T06:52:11.008Z,99234.02
2019-05-26T06:58:15.572Z,99228.75
2019-05-26T07:04:20.301Z,99228.84
2019-05-26T07:10:24.859Z,99227.78
2019-05-26T07:16:37.952Z,99229.03
2019-05-26T07:22:36.958Z,99226.95
2019-05-26T07:28:41.541Z,99216.36
2019-05-26T07:34:46.164Z,99214.86
2019-05-26T07:40:50.812Z,99198.88
2019-05-26T07:46:55.394Z,99201.75
2019-05-26T07:52:59.957Z,99195.76
2019-05-26T07:59:04.757Z,99195.52
2019-05-26T08:05:09.832Z,99193.95
2019-05-26T08:11:14.479Z,99183.00
2019-05-26T08:17:19.041Z,99178.72
2019-05-26T08:23:23.735Z,99171.23
2019-05-26T08:29:28.442Z,99172.84
2019-05-26T08:35:34.421Z,99165.38
2019-05-26T08:41:39.203Z,99168.83
2019-05-26T08:47:44.041Z,99162.95
2019-05-26T08:53:48.633Z,99168.16
2019-05-26T08:59:53.197Z,99162.59
2019-05-26T09:05:57.757Z,99149.50
2019-05-26T09:12:02.354Z,99139.13
2019-05-26T09:18:06.995Z,99148.75
2019-05-26T09:24:11.676Z,99154.94
2019-05-26T09:30:17.888Z,99149.14
2019-05-26T09:36:22.452Z,99149.50
2019-05-26T09:42:27.187Z,99133.51
2019-05-26T09:48:31.746Z,99136.96
2019-05-26T09:54:36.395Z,99129.16
2019-05-26T10:00:41.038Z,99140.06
2019-05-26T10:06:45.627Z,99120.98
2019-05-26T10:12:50.232Z,99122.06
2019-05-26T10:18:54.811Z,99115.50
2019-05-26T10:24:59.374Z,99112.48
2019-05-26T10:31:04.090Z,99113.31
2019-05-26T10:37:08.747Z,99111.81
2019-05-26T10:43:13.309Z,99114.27
2019-05-26T10:49:18.156Z,99109.59
2019-05-26T10:55:22.791Z,99095.95
2019-05-26T11:01:27.374Z,99099.73
2019-05-26T11:07:32.020Z,99091.70
2019-05-26T11:13:36.584Z,99083.47
2019-05-26T11:19:41.148Z,99064.03
2019-05-26T11:25:45.722Z,99065.68
2019-05-26T11:31:50.352Z,99062.13
2019-05-26T11:37:55.695Z,99050.67
2019-05-26T11:44:00.261Z,99053.97
2019-05-26T11:50:07.411Z,99051.62
2019-05-26T11:56:12.034Z,99048.25
2019-05-26T12:02:16.613Z,99044.98
2019-05-26T12:08:21.190Z,99042.89
2019-05-26T12:14:34.930Z,99036.09
2019-05-26T12:20:32.142Z,99031.02
2019-05-26T12:26:36.705Z,99027.07
2019-05-26T12:32:41.354Z,99022.21
2019-05-26T12:38:51.787Z,99015.67
2019-05-26T12:44:56.355Z,99005.08
2019-05-26T12:51:00.941Z,99004.28
2019-05-26T12:57:05.650Z,99002.08
2019-05-26T13:03:10.285Z,98999.30
2019-05-26T13:09:15.367Z,99004.48
2019-05-26T13:15:21.038Z,99005.36
2019-05-26T13:21:25.617Z,99010.28
2019-05-26T13:27:30.179Z,99010.56
2019-05-26T13:33:34.749Z,99001.28
2019-05-26T13:39:39.315Z,98994.78
2019-05-26T13:45:43.888Z,98990.38
2019-05-26T13:51:50.507Z,98988.16
2019-05-26T13:57:54.886Z,98992.44
2019-05-26T14:03:59.462Z,98978.00
2019-05-26T14:10:05.542Z,98976.50
2019-05-26T14:16:10.186Z,98971.00
2019-05-26T14:22:14.743Z,98974.78
2019-05-26T14:28:19.310Z,98964.85
2019-05-26T14:34:23.882Z,98959.47
2019-05-26T14:40:29.149Z,98955.66
2019-05-26T14:46:33.694Z,98948.33
2019-05-26T14:52:38.475Z,98939.77
2019-05-26T14:58:43.044Z,98932.25
2019-05-26T15:04:47.613Z,98933.44
2019-05-26T15:10:52.251Z,98918.64
2019-05-26T15:16:56.815Z,98913.49
2019-05-26T15:23:01.396Z,98916.87
2019-05-26T15:29:06.106Z,98905.05
2019-05-26T15:35:11.180Z,98905.45
2019-05-26T15:41:15.733Z,98901.31
2019-05-26T15:47:20.296Z,98895.70
2019-05-26T15:53:24.852Z,98881.94
2019-05-26T15:59:29.488Z,98878.66
2019-05-26T16:05:34.139Z,98875.67
2019-05-26T16:11:38.703Z,98872.34
2019-05-26T16:17:43.271Z,98866.48
2019-05-26T16:23:47.838Z,98861.37
2019-05-26T16:29:52.403Z,98851.50
2019-05-26T16:35:56.973Z,98853.78
2019-05-26T16:42:01.530Z,98847.12
2019-05-26T16:48:06.237Z,98843.00
2019-05-26T16:54:10.794Z,98845.66
2019-05-26T17:00:15.719Z,98827.55
2019-05-26T17:06:20.281Z,98825.48
2019-05-26T17:12:24.867Z,98822.56
2019-05-26T17:18:29.438Z,98817.05
2019-05-26T17:24:34.002Z,98817.44
2019-05-26T17:30:38.689Z,98821.84
2019-05-26T17:36:43.248Z,98818.33
2019-05-26T17:42:47.807Z,98807.14
2019-05-26T17:48:52.377Z,98807.72
2019-05-26T17:54:56.951Z,98801.22
2019-05-26T18:01:01.579Z,98803.41
2019-05-26T18:07:06.485Z,98797.19
2019-05-26T18:13:11.048Z,98796.72
2019-05-26T18:19:15.683Z,98786.41
2019-05-26T18:25:20.431Z,98788.05
2019-05-26T18:31:28.719Z,98778.27
2019-05-26T18:37:31.559Z,98767.91
2019-05-26T18:43:36.121Z,98767.92
2019-05-26T18:49:40.766Z,98769.00
2019-05-26T18:55:45.315Z,98762.72
2019-05-26T19:01:49.891Z,98752.94
2019-05-26T19:07:54.733Z,98751.04
2019-05-26T19:13:59.354Z,98749.66
2019-05-26T19:20:16.038Z,98751.25
2019-05-26T19:26:14.107Z,98752.59
2019-05-26T19:32:18.740Z,98743.92
2019-05-26T19:38:23.310Z,98742.86
2019-05-26T19:44:27.889Z,98751.25
2019-05-26T19:50:32.579Z,98743.92
2019-05-26T19:56:37.150Z,98754.23
2019-05-26T20:02:41.781Z,98757.81
2019-05-26T20:08:46.354Z,98750.47
2019-05-26T20:14:50.915Z,98755.67
2019-05-26T20:20:55.463Z,98749.95
2019-05-26T20:27:00.046Z,98748.03
2019-05-26T20:33:04.699Z,98750.75
2019-05-26T20:39:10.424Z,98750.45
2019-05-26T20:45:15.640Z,98738.23
2019-05-26T20:51:20.344Z,98736.05
2019-05-26T20:57:24.987Z,98733.57
2019-05-26T21:03:29.614Z,98725.44
2019-05-26T21:09:34.177Z,98718.61
2019-05-26T21:15:38.787Z,98714.56
2019-05-26T21:21:43.373Z,98718.08
2019-05-26T21:27:47.958Z,98715.39
2019-05-26T21:33:52.543Z,98718.30
2019-05-26T21:39:57.147Z,98713.16
2019-05-26T21:46:01.721Z,98707.91
2019-05-26T21:52:06.698Z,98700.56
2019-05-26T21:58:11.268Z,98696.97
2019-05-26T22:04:15.824Z,98691.80
2019-05-26T22:10:20.536Z,98685.47
2019-05-26T22:16:25.180Z,98684.44
2019-05-26T22:22:29.805Z,98677.66
2019-05-26T22:28:34.437Z,98663.84
2019-05-26T22:34:39.048Z,98663.84
2019-05-26T22:40:43.613Z,98659.52
2019-05-26T22:46:48.183Z,98650.45
2019-05-26T22:52:52.740Z,98651.91
2019-05-26T22:58:57.331Z,98638.27
2019-05-26T23:05:01.898Z,98638.53
2019-05-26T23:11:06.537Z,98634.14
2019-05-26T23:17:11.113Z,98634.64
2019-05-26T23:23:15.772Z,98629.15
2019-05-26T23:29:20.325Z,98620.27
2019-05-26T23:35:24.886Z,98627.28
2019-05-26T23:41:29.463Z,98619.46
2019-05-26T23:47:34.032Z,98620.22
2019-05-26T23:53:38.594Z,98613.47
2019-05-26T23:59:43.154Z,98622.28
